Time;durP1;ratioP1;P1;durP2;ratioP2;P2;SDS_P1;SDS_P2;PMS_P1;PMS_P2;Temp;Humidity;BMP_temperature;BMP_pressure;BME280_temperature;BME280_humidity;BME280_pressure;Samples;Min_cycle;Max_cycle;Signal;HPM_P1;HPM_P2
2023/09/04 00:01:07;;;;;;;6.25;3.92;;;17.20;99.90;;;;;;5018097;28;20234;-74
2023/09/04 00:03:37;;;;;;;4.57;4.25;;;17.10;99.90;;;;;;5013551;28;20308;-74
2023/09/04 00:06:05;;;;;;;8.00;4.65;;;17.10;99.90;;;;;;5011540;28;20207;-74
2023/09/04 00:08:33;;;;;;;5.50;4.40;;;17.10;99.90;;;;;;5015344;28;20293;-73
2023/09/04 00:11:01;;;;;;;11.07;4.85;;;17.00;99.90;;;;;;5020488;28;20316;-73
2023/09/04 00:13:29;;;;;;;7.88;4.35;;;17.00;99.90;;;;;;5015284;28;20224;-73
2023/09/04 00:15:57;;;;;;;4.70;4.32;;;17.00;99.90;;;;;;5012409;28;20278;-73
2023/09/04 00:18:25;;;;;;;6.78;4.43;;;16.90;99.90;;;;;;5016166;28;20238;-73
2023/09/04 00:20:55;;;;;;;7.68;4.75;;;16.90;99.90;;;;;;5022309;28;20764;-73
2023/09/04 00:23:23;;;;;;;5.38;4.63;;;16.90;99.90;;;;;;5023142;28;20298;-72
2023/09/04 00:25:51;;;;;;;7.63;4.15;;;16.90;99.90;;;;;;5024054;28;20841;-72
2023/09/04 00:28:20;;;;;;;6.32;4.38;;;16.90;99.90;;;;;;5032572;28;20269;-72
2023/09/04 00:30:49;;;;;;;6.45;4.57;;;16.80;99.90;;;;;;5032537;28;20222;-72
2023/09/04 00:33:17;;;;;;;4.95;4.57;;;16.80;99.90;;;;;;5027121;28;20258;-72
2023/09/04 00:35:45;;;;;;;7.72;4.68;;;16.80;99.90;;;;;;5010524;28;20203;-72
2023/09/04 00:38:14;;;;;;;4.78;4.47;;;16.70;99.90;;;;;;5002789;28;20246;-72
2023/09/04 00:40:42;;;;;;;9.80;4.63;;;16.70;99.90;;;;;;5015607;28;20268;-72
2023/09/04 00:43:10;;;;;;;9.10;4.85;;;16.60;99.90;;;;;;5020331;28;20230;-72
2023/09/04 00:45:38;;;;;;;5.00;4.22;;;16.60;99.90;;;;;;5011722;28;20214;-72
2023/09/04 00:48:06;;;;;;;12.48;3.80;;;16.60;99.90;;;;;;5027385;28;20213;-72
2023/09/04 00:50:34;;;;;;;10.00;4.68;;;16.50;99.90;;;;;;5016009;28;20226;-72
2023/09/04 00:53:03;;;;;;;11.20;4.70;;;16.50;99.90;;;;;;5023222;28;20261;-73
2023/09/04 00:55:33;;;;;;;8.90;4.88;;;16.50;99.90;;;;;;5022237;28;20199;-72
2023/09/04 00:58:01;;;;;;;5.30;4.80;;;16.40;99.90;;;;;;5024462;28;20211;-72
2023/09/04 01:00:29;;;;;;;7.00;4.25;;;16.40;99.90;;;;;;5010550;28;20273;-72
2023/09/04 01:02:58;;;;;;;5.25;4.30;;;16.30;99.90;;;;;;5000904;28;20194;-72
2023/09/04 01:05:28;;;;;;;4.97;3.88;;;16.30;99.90;;;;;;5004167;28;20214;-72
2023/09/04 01:07:55;;;;;;;8.55;5.13;;;16.30;99.90;;;;;;5004625;28;20214;-72
2023/09/04 01:10:23;;;;;;;5.55;4.35;;;16.30;99.90;;;;;;5012756;28;20285;-72
2023/09/04 01:12:59;;;;;;;5.22;4.72;;;16.30;99.90;;;;;;5012665;28;20276;-72
2023/09/04 01:15:27;;;;;;;9.43;4.32;;;16.30;99.90;;;;;;5012543;28;20208;-72
2023/09/04 01:17:55;;;;;;;6.72;4.35;;;16.30;99.90;;;;;;5012932;28;20207;-72
2023/09/04 01:20:26;;;;;;;6.18;5.00;;;16.20;99.90;;;;;;5013240;28;20209;-72
2023/09/04 01:22:54;;;;;;;5.32;4.65;;;16.20;99.90;;;;;;5007812;28;20207;-72
2023/09/04 01:25:23;;;;;;;5.78;5.07;;;16.10;99.90;;;;;;5008993;28;20216;-72
2023/09/04 01:28:09;;;;;;;6.28;4.22;;;16.10;99.90;;;;;;5013472;28;20253;-72
2023/09/04 01:30:41;;;;;;;8.45;5.10;;;16.10;99.90;;;;;;5015024;28;20253;-72
2023/09/04 01:33:10;;;;;;;5.57;4.55;;;16.00;99.90;;;;;;5014508;28;20219;-72
2023/09/04 01:35:39;;;;;;;11.65;4.65;;;16.00;99.90;;;;;;5013917;28;20276;-72
2023/09/04 01:38:29;;;;;;;6.63;4.40;;;16.00;99.90;;;;;;5011085;28;20695;-72
2023/09/04 01:40:57;;;;;;;4.55;4.25;;;16.00;99.90;;;;;;5002665;28;20274;-71
2023/09/04 01:43:25;;;;;;;5.18;4.25;;;15.90;99.90;;;;;;5017146;28;20713;-72
2023/09/04 01:45:52;;;;;;;4.57;4.20;;;15.90;99.90;;;;;;5013168;28;20246;-72
2023/09/04 01:48:20;;;;;;;5.55;3.83;;;15.90;99.90;;;;;;5016353;28;20246;-72
2023/09/04 01:50:50;;;;;;;4.63;4.22;;;15.90;99.90;;;;;;5017666;28;20600;-72
2023/09/04 01:53:18;;;;;;;5.28;4.50;;;15.90;99.90;;;;;;5015490;28;20797;-72
2023/09/04 01:55:46;;;;;;;4.00;3.70;;;15.90;99.90;;;;;;5015045;28;20298;-72
2023/09/04 01:58:14;;;;;;;4.25;3.85;;;15.90;99.90;;;;;;5014585;28;20261;-72
2023/09/04 02:00:43;;;;;;;5.05;4.28;;;15.90;99.90;;;;;;5019581;28;20254;-72
2023/09/04 02:03:11;;;;;;;8.90;4.32;;;15.90;99.90;;;;;;5015274;28;20207;-72
2023/09/04 02:05:39;;;;;;;5.00;4.25;;;15.90;99.90;;;;;;5014960;28;20771;-73
2023/09/04 02:08:08;;;;;;;7.00;4.85;;;15.90;99.90;;;;;;5016280;28;20289;-72
2023/09/04 02:10:36;;;;;;;6.68;4.53;;;15.90;99.90;;;;;;5016779;28;20321;-72
2023/09/04 02:13:04;;;;;;;6.00;4.10;;;15.90;99.90;;;;;;5012795;28;20727;-72
2023/09/04 02:15:32;;;;;;;6.65;4.25;;;15.80;99.90;;;;;;5018754;28;20208;-72
2023/09/04 02:18:02;;;;;;;4.47;4.15;;;15.80;99.90;;;;;;5012283;28;20250;-72
2023/09/04 02:20:30;;;;;;;7.65;4.63;;;15.80;99.90;;;;;;5020795;28;20627;-72
2023/09/04 02:22:58;;;;;;;5.00;4.28;;;15.80;99.90;;;;;;5009608;28;20294;-72
2023/09/04 02:25:27;;;;;;;6.28;4.45;;;15.80;99.90;;;;;;5019097;28;20195;-72
2023/09/04 02:27:55;;;;;;;5.47;4.13;;;15.70;99.90;;;;;;5012807;28;20231;-72
2023/09/04 02:30:23;;;;;;;4.70;4.30;;;15.70;99.90;;;;;;5019098;28;20203;-72
2023/09/04 02:32:51;;;;;;;7.45;4.35;;;15.70;99.90;;;;;;5011421;28;20289;-72
2023/09/04 02:35:19;;;;;;;5.80;4.47;;;15.70;99.90;;;;;;5013080;28;20667;-72
2023/09/04 02:37:47;;;;;;;5.30;4.80;;;15.70;99.90;;;;;;5005894;28;20282;-72
2023/09/04 02:40:15;;;;;;;5.70;4.88;;;15.70;99.90;;;;;;5011773;28;20242;-72
2023/09/04 02:42:44;;;;;;;4.75;4.30;;;15.60;99.90;;;;;;5010856;28;20290;-72
2023/09/04 02:45:12;;;;;;;4.85;4.30;;;15.60;99.90;;;;;;5007944;28;20237;-72
2023/09/04 02:47:40;;;;;;;5.07;4.60;;;15.60;99.90;;;;;;5013878;28;20230;-72
2023/09/04 02:50:08;;;;;;;5.03;4.68;;;15.60;99.90;;;;;;5016523;28;20210;-72
2023/09/04 02:52:36;;;;;;;6.22;4.30;;;15.60;99.90;;;;;;5018262;28;20282;-72
2023/09/04 02:55:05;;;;;;;4.85;4.28;;;15.60;99.90;;;;;;5019477;28;20227;-72
2023/09/04 02:57:33;;;;;;;5.10;4.30;;;15.60;99.90;;;;;;5023970;28;20206;-72
2023/09/04 03:00:04;;;;;;;4.93;4.45;;;15.60;99.90;;;;;;5019220;28;20294;-72
2023/09/04 03:02:32;;;;;;;7.50;4.35;;;15.50;99.90;;;;;;5016565;28;20241;-72
2023/09/04 03:04:59;;;;;;;5.10;4.68;;;15.50;99.90;;;;;;5019118;28;20290;-72
2023/09/04 03:07:28;;;;;;;6.90;4.43;;;15.50;99.90;;;;;;5016296;28;20665;-72
2023/09/04 03:09:56;;;;;;;5.93;4.22;;;15.50;99.90;;;;;;5019154;28;20747;-73
2023/09/04 03:12:24;;;;;;;5.97;4.10;;;15.40;99.90;;;;;;5018987;28;20223;-73
2023/09/04 03:14:56;;;;;;;7.47;3.85;;;15.40;99.90;;;;;;5020565;28;20226;-72
2023/09/04 03:17:25;;;;;;;4.75;3.95;;;15.40;99.90;;;;;;5015429;28;20242;-73
2023/09/04 03:19:55;;;;;;;4.60;4.20;;;15.40;99.90;;;;;;5016955;28;20587;-73
2023/09/04 03:22:23;;;;;;;7.70;5.30;;;15.30;99.90;;;;;;5022173;28;20285;-73
2023/09/04 03:24:51;;;;;;;5.30;4.60;;;15.30;99.90;;;;;;5017406;28;20238;-73
2023/09/04 03:27:19;;;;;;;6.47;5.05;;;15.30;99.90;;;;;;5014663;28;20640;-72
2023/09/04 03:29:47;;;;;;;6.78;4.28;;;15.20;99.90;;;;;;5015260;28;20681;-73
2023/09/04 03:32:15;;;;;;;4.78;4.40;;;15.20;99.90;;;;;;5021133;28;20306;-72
2023/09/04 03:34:44;;;;;;;7.57;4.93;;;15.20;99.90;;;;;;5013968;28;20304;-72
2023/09/04 03:37:12;;;;;;;4.82;4.43;;;15.20;99.90;;;;;;5019667;28;20214;-73
2023/09/04 03:39:40;;;;;;;5.22;4.78;;;15.20;99.90;;;;;;5016995;28;20245;-72
2023/09/04 03:42:08;;;;;;;4.70;4.30;;;15.20;99.90;;;;;;5016565;28;20323;-72
2023/09/04 03:44:36;;;;;;;6.35;4.30;;;15.10;99.90;;;;;;5019471;28;20262;-73
2023/09/04 03:47:04;;;;;;;5.03;4.63;;;15.10;99.90;;;;;;5011316;28;20281;-73
2023/09/04 03:49:32;;;;;;;5.80;4.63;;;15.10;99.90;;;;;;5014471;28;20386;-73
2023/09/04 03:52:01;;;;;;;4.63;4.25;;;15.10;99.90;;;;;;5004589;28;20230;-73
2023/09/04 03:54:29;;;;;;;5.07;3.92;;;15.10;99.90;;;;;;5012303;28;20426;-73
2023/09/04 03:56:58;;;;;;;4.70;4.30;;;15.00;99.90;;;;;;5009976;28;20243;-72
2023/09/04 03:59:26;;;;;;;5.00;4.22;;;15.00;99.90;;;;;;5005048;28;20250;-73
2023/09/04 04:01:53;;;;;;;4.65;4.28;;;15.00;99.90;;;;;;5008288;28;20311;-73
2023/09/04 04:04:21;;;;;;;5.38;4.35;;;15.00;99.90;;;;;;5010890;28;20203;-72
2023/09/04 04:06:49;;;;;;;6.05;4.40;;;15.00;99.90;;;;;;5006786;28;20317;-72
2023/09/04 04:09:21;;;;;;;13.45;4.65;;;14.90;99.90;;;;;;5013965;28;20298;-72
2023/09/04 04:11:52;;;;;;;5.65;4.47;;;14.90;99.90;;;;;;5003053;28;20224;-72
2023/09/04 04:14:20;;;;;;;4.90;4.45;;;14.90;99.90;;;;;;5012743;28;20227;-73
2023/09/04 04:16:48;;;;;;;4.72;4.40;;;14.80;99.90;;;;;;5013603;28;20317;-71
2023/09/04 04:19:16;;;;;;;4.68;4.18;;;14.80;99.90;;;;;;5022147;28;20256;-72
2023/09/04 04:21:44;;;;;;;5.05;4.45;;;14.80;99.90;;;;;;5022278;28;20309;-72
2023/09/04 04:24:13;;;;;;;7.22;4.40;;;14.80;99.90;;;;;;5000785;28;20210;-70
2023/09/04 04:26:43;;;;;;;5.97;4.43;;;14.70;99.90;;;;;;5007614;28;20309;-70
2023/09/04 04:29:11;;;;;;;6.45;4.00;;;14.70;99.90;;;;;;5018664;28;20290;-71
2023/09/04 04:31:39;;;;;;;4.43;4.13;;;14.70;99.90;;;;;;5015612;28;20262;-71
2023/09/04 04:34:07;;;;;;;4.82;4.45;;;14.70;99.90;;;;;;5006440;28;20220;-70
2023/09/04 04:36:35;;;;;;;5.57;4.30;;;14.70;99.90;;;;;;5001915;28;20207;-71
2023/09/04 04:39:03;;;;;;;6.53;4.80;;;14.70;99.90;;;;;;5008217;28;20211;-70
2023/09/04 04:41:31;;;;;;;7.50;4.90;;;14.80;99.90;;;;;;5009904;28;20333;-71
2023/09/04 04:44:01;;;;;;;8.90;4.60;;;14.80;99.90;;;;;;5012300;28;20680;-70
2023/09/04 04:46:29;;;;;;;6.50;4.00;;;14.80;99.90;;;;;;5006924;28;20227;-71
2023/09/04 04:48:57;;;;;;;4.45;4.13;;;14.80;99.90;;;;;;5010929;28;21022;-70
2023/09/04 04:51:25;;;;;;;7.40;4.80;;;14.80;99.90;;;;;;5006554;28;20227;-73
2023/09/04 04:53:53;;;;;;;5.18;4.78;;;14.90;99.90;;;;;;5017395;28;20294;-71
2023/09/04 04:56:20;;;;;;;5.82;4.72;;;14.80;99.90;;;;;;5012722;28;20733;-71
2023/09/04 04:58:48;;;;;;;4.85;4.45;;;14.80;99.90;;;;;;4992515;28;20243;-71
2023/09/04 05:01:17;;;;;;;6.18;3.85;;;14.80;99.90;;;;;;5007575;28;20262;-72
2023/09/04 05:03:45;;;;;;;5.60;4.28;;;14.90;99.90;;;;;;4995463;28;20206;-72
2023/09/04 05:06:13;;;;;;;6.65;4.20;;;14.90;99.90;;;;;;5005254;28;20220;-72
2023/09/04 05:08:41;;;;;;;10.57;5.75;;;14.90;99.90;;;;;;5001735;28;20290;-69
2023/09/04 05:11:09;;;;;;;10.98;5.95;;;15.00;99.90;;;;;;4997956;28;20275;-69
2023/09/04 05:13:37;;;;;;;9.52;4.70;;;15.40;99.90;;;;;;5007773;28;20210;-69
2023/09/04 05:16:05;;;;;;;4.53;4.22;;;15.70;99.90;;;;;;4996146;28;20332;-69
2023/09/04 05:18:34;;;;;;;7.80;4.05;;;16.00;99.90;;;;;;5002097;28;20214;-69
2023/09/04 05:21:04;;;;;;;3.72;3.50;;;16.20;99.90;;;;;;5004805;28;20428;-69
2023/09/04 05:23:33;;;;;;;6.70;4.25;;;16.30;99.90;;;;;;4995710;28;20200;-69
2023/09/04 05:26:01;;;;;;;5.80;3.90;;;16.40;99.90;;;;;;5006847;28;20254;-69
2023/09/04 05:28:29;;;;;;;4.20;3.50;;;16.30;99.90;;;;;;5000674;28;20261;-69
2023/09/04 05:31:02;;;;;;;3.75;3.55;;;16.40;99.90;;;;;;4999321;28;20259;-68
2023/09/04 05:33:30;;;;;;;4.10;3.70;;;16.40;99.90;;;;;;5009498;28;20207;-68
2023/09/04 05:36:00;;;;;;;4.03;3.63;;;16.40;99.90;;;;;;5007074;28;20644;-68
2023/09/04 05:38:28;;;;;;;6.32;3.30;;;16.40;99.90;;;;;;5000514;28;20265;-68
2023/09/04 05:40:57;;;;;;;3.75;3.45;;;16.60;99.90;;;;;;4999618;28;20589;-69
2023/09/04 05:43:25;;;;;;;3.13;2.83;;;16.80;99.90;;;;;;5009194;28;20206;-75
2023/09/04 05:45:53;;;;;;;3.45;3.15;;;16.90;99.90;;;;;;5009601;28;20199;-75
2023/09/04 05:48:21;;;;;;;5.03;3.53;;;16.80;99.90;;;;;;5001228;28;20266;-75
2023/09/04 05:50:50;;;;;;;6.82;3.40;;;16.60;99.90;;;;;;5001687;28;20234;-75
2023/09/04 05:53:19;;;;;;;5.63;3.50;;;16.40;99.90;;;;;;5007656;28;20234;-75
2023/09/04 05:56:02;;;;;;;3.95;3.55;;;16.20;99.90;;;;;;4994629;28;20219;-75
2023/09/04 05:58:30;;;;;;;4.43;3.40;;;16.10;99.90;;;;;;5002602;28;20254;-75
2023/09/04 06:00:58;;;;;;;7.38;3.35;;;16.00;99.90;;;;;;5003857;28;20618;-75
2023/09/04 06:03:27;;;;;;;3.47;3.17;;;16.00;99.90;;;;;;4995312;28;20684;-75
2023/09/04 06:05:55;;;;;;;4.03;3.50;;;15.90;99.90;;;;;;5007142;28;20282;-76
2023/09/04 06:08:24;;;;;;;3.95;3.63;;;16.00;99.90;;;;;;4998725;28;20199;-75
2023/09/04 06:10:52;;;;;;;4.22;3.88;;;15.90;99.90;;;;;;5000851;28;20657;-75
2023/09/04 06:13:20;;;;;;;6.10;3.70;;;15.90;99.90;;;;;;5008666;28;20675;-75
2023/09/04 06:15:50;;;;;;;7.80;3.50;;;15.90;99.90;;;;;;4996817;28;20269;-75
2023/09/04 06:18:19;;;;;;;8.25;3.38;;;16.00;99.90;;;;;;5005967;28;20250;-75
2023/09/04 06:20:46;;;;;;;4.40;3.97;;;16.00;99.90;;;;;;5004913;28;20860;-75
2023/09/04 06:23:14;;;;;;;7.50;3.63;;;16.00;99.90;;;;;;5001590;28;20243;-75
2023/09/04 06:25:44;;;;;;;3.42;3.10;;;16.10;99.90;;;;;;5013277;28;20621;-75
2023/09/04 06:28:12;;;;;;;4.05;3.70;;;16.10;99.90;;;;;;5003218;28;20210;-75
2023/09/04 06:30:40;;;;;;;4.30;3.90;;;16.20;99.90;;;;;;5006724;28;20263;-75
2023/09/04 06:33:08;;;;;;;6.38;3.88;;;16.20;99.90;;;;;;5010766;28;20214;-75
2023/09/04 06:35:36;;;;;;;4.10;3.50;;;16.30;99.90;;;;;;5015518;28;20226;-75
2023/09/04 06:38:04;;;;;;;5.45;3.63;;;16.30;99.90;;;;;;5002253;28;20203;-75
2023/09/04 06:40:33;;;;;;;4.72;3.40;;;16.30;99.90;;;;;;5007317;28;20232;-75
2023/09/04 06:43:03;;;;;;;4.20;3.78;;;16.40;99.90;;;;;;5009741;28;20266;-75
2023/09/04 06:45:30;;;;;;;9.32;3.70;;;16.40;99.90;;;;;;4999970;28;20236;-75
2023/09/04 06:47:58;;;;;;;4.15;3.10;;;16.50;99.90;;;;;;5012215;28;20236;-75
2023/09/04 06:50:26;;;;;;;3.65;3.33;;;16.60;99.90;;;;;;5004601;28;20218;-75
2023/09/04 06:52:54;;;;;;;4.00;3.67;;;16.70;99.90;;;;;;5004271;28;20204;-75
2023/09/04 06:55:22;;;;;;;5.22;3.88;;;16.80;99.90;;;;;;5012272;28;20588;-75
2023/09/04 06:57:50;;;;;;;9.43;4.15;;;16.80;99.90;;;;;;4999648;28;20302;-75
2023/09/04 07:00:20;;;;;;;4.85;3.63;;;16.90;99.90;;;;;;5008742;28;20740;-75
2023/09/04 07:02:48;;;;;;;5.00;3.90;;;17.00;99.90;;;;;;5007343;28;20207;-75
2023/09/04 07:05:17;;;;;;;6.25;3.75;;;17.10;99.90;;;;;;5000928;28;20208;-75
2023/09/04 07:07:47;;;;;;;3.80;3.58;;;17.20;99.90;;;;;;5012741;28;20206;-75
2023/09/04 07:10:15;;;;;;;5.43;3.47;;;17.20;99.90;;;;;;5003131;28;20203;-75
2023/09/04 07:12:43;;;;;;;4.03;2.90;;;17.20;99.90;;;;;;5015886;28;20223;-75
2023/09/04 07:15:11;;;;;;;4.20;3.50;;;17.40;99.90;;;;;;5008791;28;20203;-75
2023/09/04 07:17:40;;;;;;;3.88;3.15;;;17.40;99.90;;;;;;5010149;28;20238;-75
2023/09/04 07:20:10;;;;;;;5.43;3.42;;;17.50;99.90;;;;;;5018929;28;20302;-76
2023/09/04 07:22:38;;;;;;;3.67;3.38;;;17.60;99.90;;;;;;5012898;28;20237;-75
2023/09/04 07:25:07;;;;;;;5.50;3.65;;;17.70;99.90;;;;;;5024114;28;20228;-75
2023/09/04 07:27:35;;;;;;;7.13;3.70;;;17.80;99.90;;;;;;5024476;28;20234;-75
2023/09/04 07:30:03;;;;;;;4.85;3.50;;;17.80;99.90;;;;;;5009198;28;20761;-75
2023/09/04 07:32:31;;;;;;;7.00;3.40;;;17.80;99.90;;;;;;5004552;28;20727;-75
2023/09/04 07:35:00;;;;;;;3.28;3.15;;;17.90;99.90;;;;;;5016230;28;20211;-75
2023/09/04 07:37:28;;;;;;;4.85;3.13;;;17.90;99.90;;;;;;4999530;28;20281;-75
2023/09/04 07:39:56;;;;;;;4.20;3.85;;;18.00;99.90;;;;;;5011147;28;20219;-75
2023/09/04 07:42:24;;;;;;;4.07;3.17;;;18.10;99.90;;;;;;5004001;28;20249;-75
2023/09/04 07:44:52;;;;;;;4.70;3.13;;;18.20;99.90;;;;;;5003486;28;20210;-75
2023/09/04 07:47:20;;;;;;;6.20;3.35;;;18.30;99.90;;;;;;5011439;28;20230;-75
2023/09/04 07:49:50;;;;;;;9.57;3.20;;;18.40;99.90;;;;;;4998390;28;20673;-75
2023/09/04 07:52:19;;;;;;;5.82;3.20;;;18.50;99.90;;;;;;5013311;28;20285;-75
2023/09/04 07:54:48;;;;;;;4.22;3.33;;;18.50;99.90;;;;;;5006803;28;20238;-75
2023/09/04 07:57:16;;;;;;;3.47;3.25;;;18.70;99.90;;;;;;4995693;28;20273;-75
2023/09/04 07:59:44;;;;;;;3.25;2.95;;;18.80;99.90;;;;;;5010786;28;20207;-75
2023/09/04 08:02:12;;;;;;;3.30;3.10;;;18.90;99.90;;;;;;5001587;28;20623;-75
2023/09/04 08:04:41;;;;;;;3.25;3.03;;;19.00;99.90;;;;;;5004597;28;20207;-75
2023/09/04 08:07:09;;;;;;;4.20;2.80;;;19.10;99.90;;;;;;5009730;28;20199;-75
2023/09/04 08:09:38;;;;;;;5.18;3.40;;;19.20;99.90;;;;;;5013863;28;20210;-75
2023/09/04 08:12:07;;;;;;;5.25;3.00;;;19.30;99.90;;;;;;4999807;28;20268;-76
2023/09/04 08:14:36;;;;;;;4.85;3.03;;;19.40;99.90;;;;;;5005002;28;20243;-75
2023/09/04 08:17:04;;;;;;;3.30;3.10;;;19.50;99.90;;;;;;5007102;28;20230;-75
2023/09/04 08:19:32;;;;;;;2.75;2.55;;;19.60;99.90;;;;;;5002443;28;20211;-75
2023/09/04 08:21:59;;;;;;;2.92;2.70;;;19.70;99.90;;;;;;5010157;28;20263;-76
2023/09/04 08:24:27;;;;;;;2.58;2.40;;;19.80;99.90;;;;;;5003116;28;20209;-75
2023/09/04 08:26:57;;;;;;;5.43;2.60;;;19.90;99.90;;;;;;5002651;28;20234;-76
2023/09/04 08:29:24;;;;;;;4.85;2.33;;;20.00;99.90;;;;;;5010606;28;20640;-76
2023/09/04 08:31:52;;;;;;;2.85;2.65;;;20.20;99.90;;;;;;4998082;28;20250;-76
2023/09/04 08:34:20;;;;;;;2.40;2.28;;;20.20;99.90;;;;;;5013457;28;20199;-75
2023/09/04 08:36:48;;;;;;;4.35;2.30;;;20.30;99.90;;;;;;5003146;28;20231;-75
2023/09/04 08:39:16;;;;;;;2.97;2.78;;;20.40;99.90;;;;;;5009875;28;20234;-75
2023/09/04 08:41:44;;;;;;;2.35;2.10;;;20.40;99.90;;;;;;4997586;28;20277;-75
2023/09/04 08:44:13;;;;;;;3.15;2.85;;;20.50;99.90;;;;;;5006876;28;20211;-75
2023/09/04 08:46:41;;;;;;;5.05;2.20;;;20.60;99.90;;;;;;5004873;28;20222;-75
2023/09/04 08:49:09;;;;;;;5.05;2.33;;;20.70;99.90;;;;;;5000118;28;20475;-75
2023/09/04 08:51:37;;;;;;;2.65;2.45;;;20.80;99.90;;;;;;5011178;28;20222;-76
2023/09/04 08:54:05;;;;;;;2.45;2.25;;;20.90;99.90;;;;;;5000112;28;20692;-75
2023/09/04 08:56:33;;;;;;;3.17;2.22;;;21.10;99.90;;;;;;5005187;28;20747;-75
2023/09/04 08:59:01;;;;;;;4.00;2.28;;;21.20;99.90;;;;;;5007952;28;20230;-75
2023/09/04 09:01:33;;;;;;;4.22;2.28;;;21.40;99.90;;;;;;4997833;28;20266;-76
2023/09/04 09:04:01;;;;;;;4.03;2.55;;;21.50;99.90;;;;;;5009738;28;20203;-76
2023/09/04 09:06:30;;;;;;;2.72;1.77;;;21.60;99.90;;;;;;5003246;28;20475;-76
2023/09/04 09:09:00;;;;;;;2.35;2.15;;;21.80;99.90;;;;;;5001687;28;20234;-75
2023/09/04 09:11:28;;;;;;;2.45;2.05;;;21.90;99.90;;;;;;5010823;28;20223;-76
2023/09/04 09:13:56;;;;;;;3.53;2.25;;;22.00;99.90;;;;;;4998643;28;20253;-76
2023/09/04 09:16:24;;;;;;;2.97;1.80;;;22.10;99.90;;;;;;5005914;28;20212;-76
2023/09/04 09:18:54;;;;;;;2.97;1.92;;;22.20;99.90;;;;;;5005829;28;20305;-76
2023/09/04 09:21:23;;;;;;;2.53;2.30;;;22.40;99.90;;;;;;4998394;28;20220;-76
2023/09/04 09:24:13;;;;;;;2.80;2.50;;;22.50;99.90;;;;;;4998053;28;20285;-76
2023/09/04 09:26:43;;;;;;;4.93;1.98;;;22.70;99.90;;;;;;5004101;28;20229;-76
2023/09/04 09:29:12;;;;;;;2.20;2.00;;;22.90;99.90;;;;;;5008864;28;20207;-76
2023/09/04 09:31:42;;;;;;;2.38;1.95;;;23.00;99.90;;;;;;4997788;28;20743;-76
2023/09/04 09:34:12;;;;;;;2.22;2.00;;;23.20;99.90;;;;;;5015216;28;20210;-76
2023/09/04 09:36:40;;;;;;;2.28;2.10;;;23.40;99.90;;;;;;5003796;28;20689;-76
2023/09/04 09:39:08;;;;;;;2.85;1.63;;;23.50;99.90;;;;;;5007821;28;20615;-76
2023/09/04 09:41:37;;;;;;;2.97;1.73;;;23.70;99.90;;;;;;4997738;28;20277;-76
2023/09/04 09:44:05;;;;;;;1.73;1.63;;;23.80;99.90;;;;;;5008783;28;20638;-76
2023/09/04 09:46:35;;;;;;;1.92;1.83;;;23.90;99.90;;;;;;5003650;28;20221;-76
2023/09/04 09:49:03;;;;;;;3.20;2.00;;;24.00;99.90;;;;;;5000868;28;20211;-76
2023/09/04 09:51:34;;;;;;;4.35;1.45;;;24.10;99.90;;;;;;5010229;28;20290;-76
2023/09/04 09:54:01;;;;;;;1.73;1.63;;;24.30;99.90;;;;;;4999163;28;20207;-76
2023/09/04 09:56:29;;;;;;;1.67;1.58;;;24.50;99.90;;;;;;5006931;28;20208;-76
2023/09/04 09:58:57;;;;;;;1.75;1.65;;;24.70;99.90;;;;;;5010614;28;20202;-76
2023/09/04 10:01:27;;;;;;;1.90;1.80;;;24.80;99.90;;;;;;5001778;28;20319;-76
2023/09/04 10:03:55;;;;;;;2.17;1.75;;;25.10;99.90;;;;;;5002214;28;20209;-76
2023/09/04 10:06:24;;;;;;;1.77;1.67;;;25.30;99.90;;;;;;5010390;28;20258;-76
2023/09/04 10:08:53;;;;;;;1.63;1.63;;;25.60;99.90;;;;;;4998317;28;20253;-76
2023/09/04 10:11:21;;;;;;;1.23;1.23;;;25.60;99.90;;;;;;5014119;28;20788;-75
2023/09/04 10:13:54;;;;;;;4.00;1.40;;;25.90;99.90;;;;;;5001547;28;20203;-76
2023/09/04 10:16:28;;;;;;;1.77;1.67;;;26.10;99.90;;;;;;5009293;28;20207;-76
2023/09/04 10:18:59;;;;;;;1.52;1.48;;;26.30;99.90;;;;;;5010443;28;20221;-75
2023/09/04 10:21:29;;;;;;;1.35;1.20;;;26.50;99.90;;;;;;5001612;28;20227;-76
2023/09/04 10:24:00;;;;;;;1.50;1.40;;;26.60;99.90;;;;;;5013630;28;20195;-76
2023/09/04 10:26:35;;;;;;;1.70;1.60;;;26.80;99.90;;;;;;5006274;28;20211;-76
2023/09/04 10:29:05;;;;;;;3.20;2.22;;;27.00;99.90;;;;;;5007333;28;20703;-76
2023/09/04 10:31:34;;;;;;;1.55;1.42;;;27.00;99.90;;;;;;5027511;28;20257;-76
2023/09/04 10:34:02;;;;;;;2.85;1.58;;;27.20;99.90;;;;;;5018621;28;20203;-76
2023/09/04 10:36:30;;;;;;;1.08;1.08;;;27.50;99.90;;;;;;5008299;28;20231;-76
2023/09/04 10:39:01;;;;;;;1.52;1.40;;;27.70;99.90;;;;;;5009504;28;20229;-76
2023/09/04 10:41:29;;;;;;;2.08;1.88;;;27.70;99.90;;;;;;5017821;28;20249;-76
2023/09/04 10:43:57;;;;;;;1.55;1.40;;;27.80;99.90;;;;;;5011400;28;20608;-76
2023/09/04 10:46:25;;;;;;;3.13;1.30;;;28.20;99.90;;;;;;5007339;28;20579;-76
2023/09/04 10:48:53;;;;;;;1.40;1.40;;;28.20;99.90;;;;;;5019343;28;20201;-76
2023/09/04 10:51:32;;;;;;;3.97;1.63;;;28.30;99.90;;;;;;5027817;28;20611;-76
2023/09/04 10:54:02;;;;;;;1.65;1.42;;;28.40;99.90;;;;;;5001224;28;20256;-76
2023/09/04 10:56:32;;;;;;;1.40;1.30;;;28.60;99.90;;;;;;5008047;28;20218;-76
2023/09/04 10:59:04;;;;;;;1.40;1.30;;;29.00;99.90;;;;;;5009384;28;20250;-76
2023/09/04 11:01:33;;;;;;;3.38;1.48;;;29.10;99.90;;;;;;5000032;28;20231;-76
2023/09/04 11:04:05;;;;;;;1.88;1.38;;;29.40;99.90;;;;;;5014933;28;20202;-76
2023/09/04 11:06:37;;;;;;;2.55;1.50;;;29.60;99.90;;;;;;5003780;28;20279;-76
2023/09/04 11:09:06;;;;;;;3.47;1.50;;;29.90;99.90;;;;;;5008767;28;20242;-76
2023/09/04 11:11:35;;;;;;;3.05;1.42;;;30.10;98.80;;;;;;4998445;28;20267;-76
2023/09/04 11:14:06;;;;;;;2.72;1.10;;;30.30;96.70;;;;;;5010035;28;20257;-76
2023/09/04 11:16:37;;;;;;;1.38;1.27;;;30.50;98.10;;;;;;4995158;28;20207;-76
2023/09/04 11:19:07;;;;;;;1.85;1.63;;;30.70;96.90;;;;;;5008322;28;20219;-76
2023/09/04 11:21:36;;;;;;;1.20;1.20;;;30.80;95.60;;;;;;4998759;28;20282;-78
2023/09/04 11:24:06;;;;;;;1.60;1.50;;;30.80;96.30;;;;;;5009232;28;20211;-71
2023/09/04 11:26:33;;;;;;;1.42;1.42;;;30.80;94.30;;;;;;5004066;28;20234;-76
2023/09/04 11:29:02;;;;;;;1.77;1.40;;;30.70;95.10;;;;;;5004239;28;20192;-77
2023/09/04 11:31:31;;;;;;;1.58;1.58;;;30.70;96.20;;;;;;5011595;28;20250;-76
2023/09/04 11:33:59;;;;;;;2.05;1.40;;;30.80;93.70;;;;;;5001923;28;20206;-76
2023/09/04 11:36:27;;;;;;;1.65;1.55;;;30.90;95.60;;;;;;5006989;28;20203;-76
2023/09/04 11:39:07;;;;;;;1.77;1.70;;;31.30;95.20;;;;;;5006901;28;20258;-76
2023/09/04 11:41:34;;;;;;;1.40;1.38;;;31.60;94.70;;;;;;4998627;28;20258;-75
2023/09/04 11:44:06;;;;;;;2.10;1.90;;;31.60;93.20;;;;;;5017899;28;20281;-76
2023/09/04 11:46:34;;;;;;;4.10;1.33;;;31.50;92.20;;;;;;5005460;28;20257;-76
2023/09/04 11:49:03;;;;;;;1.60;1.50;;;31.70;93.30;;;;;;5009479;28;20234;-76
2023/09/04 11:51:31;;;;;;;1.60;1.60;;;31.90;93.70;;;;;;5013238;28;20234;-76
2023/09/04 11:53:59;;;;;;;1.63;1.52;;;32.20;92.30;;;;;;5016540;28;20213;-76
2023/09/04 11:56:29;;;;;;;1.77;1.67;;;32.20;91.90;;;;;;5017478;28;20250;-76
2023/09/04 11:58:57;;;;;;;2.60;1.63;;;32.40;91.40;;;;;;5021638;28;20309;-76
2023/09/04 12:01:25;;;;;;;2.83;1.65;;;32.40;90.40;;;;;;5012380;28;20294;-76
2023/09/04 12:03:53;;;;;;;2.35;1.42;;;32.60;90.90;;;;;;5003404;28;20297;-76
2023/09/04 12:06:25;;;;;;;1.83;1.50;;;32.80;90.90;;;;;;5009489;28;20207;-76
2023/09/04 12:08:53;;;;;;;1.67;1.52;;;32.90;85.60;;;;;;5019929;28;20206;-76
2023/09/04 12:11:21;;;;;;;1.92;1.80;;;32.40;87.80;;;;;;5001230;28;20247;-76
2023/09/04 12:13:51;;;;;;;1.85;1.75;;;32.60;90.60;;;;;;5022422;28;20244;-76
2023/09/04 12:16:19;;;;;;;1.55;1.42;;;32.40;86.40;;;;;;5014308;28;20207;-76
2023/09/04 12:18:49;;;;;;;1.30;1.30;;;32.10;86.80;;;;;;5019596;28;20439;-76
2023/09/04 12:21:17;;;;;;;2.55;1.50;;;32.30;89.70;;;;;;5020053;28;20225;-75
2023/09/04 12:23:46;;;;;;;1.70;1.70;;;32.50;86.30;;;;;;5014517;28;20210;-70
2023/09/04 12:26:16;;;;;;;1.73;1.63;;;32.30;85.10;;;;;;5016835;28;20416;-76
2023/09/04 12:28:44;;;;;;;4.63;1.65;;;32.30;86.20;;;;;;5020628;28;20260;-76
2023/09/04 12:31:15;;;;;;;1.70;1.60;;;32.50;84.70;;;;;;5018097;28;20281;-75
2023/09/04 12:33:43;;;;;;;1.70;1.60;;;32.60;86.20;;;;;;5018760;28;20668;-74
2023/09/04 12:36:13;;;;;;;2.05;1.85;;;32.70;85.80;;;;;;5010093;28;20671;-76
2023/09/04 12:38:41;;;;;;;2.05;1.50;;;32.90;87.10;;;;;;5007030;28;20692;-76
2023/09/04 12:41:09;;;;;;;2.15;1.50;;;32.90;84.70;;;;;;5009076;28;20234;-76
2023/09/04 12:43:36;;;;;;;1.70;1.70;;;33.20;85.10;;;;;;5022825;28;20233;-76
2023/09/04 12:46:05;;;;;;;3.08;1.42;;;33.50;83.00;;;;;;5007114;28;20199;-77
2023/09/04 12:48:35;;;;;;;1.90;1.80;;;33.40;84.20;;;;;;5002371;28;20202;-75
2023/09/04 12:51:03;;;;;;;2.00;1.90;;;33.70;85.00;;;;;;4999958;28;20265;-76
2023/09/04 12:53:31;;;;;;;2.13;1.98;;;33.80;85.50;;;;;;5008368;28;20728;-76